Time;durP1;ratioP1;P1;durP2;ratioP2;P2;SDS_P1;SDS_P2;PMS_P1;PMS_P2;Temp;Humidity;BMP_temperature;BMP_pressure;BME280_temperature;BME280_humidity;BME280_pressure;Samples;Min_cycle;Max_cycle;Signal;HPM_P1;HPM_P2
2022/01/10 00:00:08;;;;;;;10.20;4.73;;;1.40;99.90;;;;;;4975248;28;20455;-87
2022/01/10 00:02:35;;;;;;;7.13;4.07;;;;;;;;;;4975705;28;20459;-87
2022/01/10 00:05:02;;;;;;;7.60;4.60;;;;;;;;;;4975723;28;20454;-87
2022/01/10 00:07:29;;;;;;;9.90;5.00;;;;;;;;;;4974990;28;20494;-86
2022/01/10 00:09:59;;;;;;;12.30;4.40;;;;;;;;;;4975695;28;20914;-86
2022/01/10 00:12:26;;;;;;;7.27;4.27;;;;;;;;;;4974131;28;20451;-86
2022/01/10 00:14:54;;;;;;;9.27;4.30;;;;;;;;;;4975226;28;20478;-85
2022/01/10 00:17:22;;;;;;;6.80;4.60;;;1.30;99.90;;;;;;4975377;28;20958;-85
2022/01/10 00:19:50;;;;;;;7.17;4.33;;;;;;;;;;4975251;28;20535;-87
2022/01/10 00:22:18;;;;;;;8.17;4.43;;;;;;;;;;4975089;28;20454;-85
2022/01/10 00:24:45;;;;;;;9.17;4.17;;;;;;;;;;4975290;28;20459;-85
2022/01/10 00:27:12;;;;;;;9.07;5.13;;;;;;;;;;4974205;28;20918;-85
2022/01/10 00:29:39;;;;;;;5.90;4.67;;;;;;;;;;4976172;28;20466;-85
2022/01/10 00:32:07;;;;;;;8.83;5.47;;;;;;;;;;4976160;28;20477;-86
2022/01/10 00:34:36;;;;;;;8.60;4.70;;;;;;;;;;4984766;28;20489;-84
2022/01/10 00:37:03;;;;;;;7.70;4.77;;;;;;;;;;4999472;28;20447;-85
2022/01/10 00:39:30;;;;;;;6.90;4.73;;;;;;;;;;4984194;28;20458;-87
2022/01/10 00:41:57;;;;;;;7.77;5.07;;;;;;;;;;4975580;28;20458;-86
2022/01/10 00:44:26;;;;;;;9.73;4.63;;;;;;;;;;4974222;28;20946;-85
2022/01/10 00:46:54;;;;;;;8.53;5.00;;;;;;;;;;4975097;28;20505;-86
2022/01/10 00:49:21;;;;;;;7.20;5.13;;;;;;;;;;4975560;28;20818;-86
2022/01/10 00:51:49;;;;;;;10.43;5.30;;;1.40;99.90;;;;;;4976259;28;20469;-86
2022/01/10 00:54:16;;;;;;;8.63;4.30;;;;;;;;;;4974706;28;20455;-87
2022/01/10 00:56:44;;;;;;;4.87;4.33;;;;;;;;;;4974797;28;20462;-85
2022/01/10 00:59:11;;;;;;;8.90;4.90;;;;;;;;;;4973618;28;20459;-86
2022/01/10 01:01:39;;;;;;;8.67;4.37;;;;;;;;;;4975353;28;20459;-87
2022/01/10 01:04:07;;;;;;;7.20;4.90;;;;;;;;;;4975067;28;20455;-87
2022/01/10 01:06:34;;;;;;;11.23;5.07;;;;;;;;;;4974601;28;20541;-89
2022/01/10 01:09:07;;;;;;;5.20;4.07;;;;;;;;;;4974403;28;20486;-89
2022/01/10 01:14:24;;;;;;;6.80;4.50;;;;;;;;;;4964372;28;20462;-88
2022/01/10 01:17:08;;;;;;;8.20;4.70;;;;;;;;;;4972028;28;20461;-84
2022/01/10 01:25:06;;;;;;;6.97;4.27;;;1.30;99.90;;;;;;4953260;28;20949;-88
2022/01/10 01:27:33;;;;;;;6.47;4.30;;;;;;;;;;4972970;28;20490;-88
2022/01/10 01:30:00;;;;;;;6.80;4.90;;;;;;;;;;4974153;28;20462;-88
2022/01/10 01:32:27;;;;;;;5.97;4.03;;;;;;;;;;4974314;28;20458;-85
2022/01/10 01:35:02;;;;;;;10.60;4.83;;;;;;;;;;4973939;28;20486;-87
2022/01/10 01:37:29;;;;;;;10.60;5.87;;;;;;;;;;4974055;28;20481;-86
2022/01/10 01:39:57;;;;;;;7.37;4.23;;;;;;;;;;4973868;28;20455;-87
2022/01/10 01:42:34;;;;;;;8.67;4.70;;;;;;;;;;4973006;28;20458;-86
2022/01/10 01:45:01;;;;;;;6.33;4.60;;;;;;;;;;4974143;28;20978;-86
2022/01/10 01:47:28;;;;;;;5.63;4.00;;;;;;;;;;4973564;28;20501;-85
2022/01/10 01:49:56;;;;;;;6.97;4.80;;;;;;;;;;4974292;28;20956;-85
2022/01/10 01:52:23;;;;;;;9.53;4.80;;;;;;;;;;4973718;28;20497;-85
2022/01/10 01:54:50;;;;;;;8.10;5.17;;;;;;;;;;4978183;28;20805;-87
2022/01/10 01:57:17;;;;;;;9.07;4.23;;;;;;;;;;4977047;28;20446;-87
2022/01/10 01:59:46;;;;;;;9.27;4.50;;;1.40;99.90;;;;;;4978494;28;20453;-85
2022/01/10 02:02:13;;;;;;;6.17;4.77;;;;;;;;;;4978045;28;20601;-85
2022/01/10 02:04:40;;;;;;;6.00;4.53;;;;;;;;;;4978124;28;20481;-86
2022/01/10 02:07:07;;;;;;;13.97;4.87;;;;;;;;;;4977918;28;20569;-86
2022/01/10 02:09:34;;;;;;;5.70;4.00;;;;;;;;;;4978121;28;20462;-85
2022/01/10 02:12:01;;;;;;;5.50;3.90;;;;;;;;;;4978142;28;20955;-86
2022/01/10 02:14:29;;;;;;;5.90;4.30;;;;;;;;;;4977837;28;20842;-86
2022/01/10 02:16:57;;;;;;;8.53;4.53;;;;;;;;;;4978064;28;20827;-86
2022/01/10 02:19:25;;;;;;;10.10;4.47;;;;;;;;;;4978005;28;20493;-85
2022/01/10 02:21:54;;;;;;;9.70;4.70;;;1.20;99.90;;;;;;4978471;28;20450;-86
2022/01/10 02:24:23;;;;;;;7.37;4.37;;;;;;;;;;4977919;28;20806;-87
2022/01/10 02:26:51;;;;;;;6.20;3.63;;;1.30;99.90;;;;;;4977753;28;20549;-87
2022/01/10 02:29:18;;;;;;;5.93;3.60;;;;;;;;;;4976392;28;20450;-86
2022/01/10 02:31:47;;;;;;;7.00;3.70;;;1.30;99.90;;;;;;4977508;28;20958;-86
2022/01/10 02:34:18;;;;;;;5.83;3.77;;;;;;;;;;4977384;28;20970;-87
2022/01/10 02:36:46;;;;;;;10.40;4.13;;;;;;;;;;4977843;28;20927;-87
2022/01/10 02:39:19;;;;;;;8.90;4.53;;;1.10;99.90;;;;;;4977693;28;20825;-88
2022/01/10 02:41:46;;;;;;;7.33;4.37;;;;;;;;;;4977479;28;20820;-87
2022/01/10 02:44:16;;;;;;;5.93;3.87;;;1.40;99.90;;;;;;4976237;28;20450;-87
2022/01/10 02:46:45;;;;;;;9.73;3.53;;;1.40;99.90;;;;;;4977650;28;20453;-86
2022/01/10 02:49:13;;;;;;;6.60;3.60;;;1.20;99.90;;;;;;4977486;28;20497;-87
2022/01/10 02:51:41;;;;;;;7.23;3.67;;;1.30;99.90;;;;;;4977001;28;20502;-86
2022/01/10 02:54:09;;;;;;;8.37;3.50;;;;;;;;;;4977107;28;20830;-85
2022/01/10 02:56:46;;;;;;;5.83;4.00;;;1.30;99.90;;;;;;4977351;28;20443;-86
2022/01/10 02:59:14;;;;;;;11.57;3.40;;;1.30;99.90;;;;;;4976046;28;20458;-87
2022/01/10 03:01:41;;;;;;;7.20;3.20;;;;;;;;;;4977069;28;20961;-86
2022/01/10 03:04:08;;;;;;;6.07;3.10;;;;;;;;;;4977051;28;20450;-85
2022/01/10 03:06:36;;;;;;;5.93;3.83;;;;;;;;;;4976983;28;20455;-88
2022/01/10 03:09:06;;;;;;;5.80;3.30;;;;;;;;;;4977316;28;20502;-86
2022/01/10 03:11:33;;;;;;;5.90;3.57;;;1.40;99.90;;;;;;4978585;28;20447;-87
2022/01/10 03:14:02;;;;;;;7.43;3.23;;;1.40;99.90;;;;;;4984315;28;20458;-87
2022/01/10 03:16:29;;;;;;;7.13;3.40;;;;;;;;;;5002006;28;20445;-87
2022/01/10 03:18:56;;;;;;;4.20;2.90;;;;;;;;;;4986466;28;20458;-85
2022/01/10 03:21:23;;;;;;;6.80;3.80;;;;;;;;;;4976876;28;20451;-86
2022/01/10 03:23:51;;;;;;;6.60;3.87;;;1.40;99.90;;;;;;4976671;28;20541;-87
2022/01/10 03:26:18;;;;;;;8.10;4.20;;;;;;;;;;4976395;28;20962;-87
2022/01/10 03:28:45;;;;;;;5.80;3.60;;;;;;;;;;4976082;28;20494;-87
2022/01/10 03:31:14;;;;;;;6.40;3.40;;;;;;;;;;4976678;28;20459;-86
2022/01/10 03:33:41;;;;;;;5.60;3.47;;;;;;;;;;4976528;28;20465;-88
2022/01/10 03:36:08;;;;;;;9.80;4.20;;;;;;;;;;4976242;28;20493;-87
2022/01/10 03:38:35;;;;;;;5.17;4.00;;;;;;;;;;4976581;28;20459;-87
2022/01/10 03:41:03;;;;;;;5.27;3.50;;;;;;;;;;4976090;28;20455;-87
2022/01/10 03:43:30;;;;;;;5.10;3.80;;;;;;;;;;4976163;28;20454;-86
2022/01/10 03:45:58;;;;;;;7.90;3.13;;;;;;;;;;4976898;28;20451;-86
2022/01/10 03:48:26;;;;;;;4.00;3.13;;;1.40;99.90;;;;;;4976057;28;20486;-87
2022/01/10 03:50:54;;;;;;;9.40;3.33;;;;;;;;;;4975994;28;20459;-86
2022/01/10 03:53:22;;;;;;;9.33;3.30;;;;;;;;;;4976146;28;20481;-87
2022/01/10 03:55:50;;;;;;;7.33;3.03;;;;;;;;;;4976315;28;20455;-86
2022/01/10 03:58:17;;;;;;;6.40;3.00;;;;;;;;;;4973574;28;20462;-86
2022/01/10 04:00:44;;;;;;;6.93;2.83;;;;;;;;;;4976012;28;20462;-88
2022/01/10 04:03:11;;;;;;;5.30;2.60;;;;;;;;;;4975813;28;20454;-87
2022/01/10 04:05:39;;;;;;;6.20;3.00;;;1.60;99.90;;;;;;4975982;28;20439;-86
2022/01/10 04:08:06;;;;;;;5.03;2.97;;;;;;;;;;4975801;28;21021;-85
2022/01/10 04:10:34;;;;;;;6.43;2.90;;;;;;;;;;4975674;28;20457;-85
2022/01/10 04:13:01;;;;;;;12.03;3.23;;;;;;;;;;4974630;28;20474;-88
2022/01/10 04:15:28;;;;;;;3.70;2.70;;;;;;;;;;4975162;28;20493;-86
2022/01/10 04:17:57;;;;;;;5.47;2.70;;;;;;;;;;4975339;28;20455;-86
2022/01/10 04:20:24;;;;;;;6.37;2.77;;;;;;;;;;4975363;28;20499;-86
2022/01/10 04:22:53;;;;;;;6.67;3.70;;;1.50;99.90;;;;;;4975308;28;20443;-89
2022/01/10 04:25:20;;;;;;;6.13;2.70;;;;;;;;;;4975395;28;20458;-88
2022/01/10 04:27:47;;;;;;;5.27;2.87;;;;;;;;;;4974150;28;20854;-86
2022/01/10 04:30:14;;;;;;;8.37;2.53;;;;;;;;;;4975962;28;20453;-86
2022/01/10 04:32:43;;;;;;;5.37;3.10;;;;;;;;;;4975367;28;20469;-86
2022/01/10 04:35:12;;;;;;;6.00;2.60;;;1.90;99.90;;;;;;4975252;28;20517;-87
2022/01/10 04:37:40;;;;;;;7.40;2.77;;;;;;;;;;4975394;28;20450;-86
2022/01/10 04:40:11;;;;;;;4.80;3.10;;;1.50;99.90;;;;;;4975379;28;20529;-87
2022/01/10 04:42:38;;;;;;;5.23;2.80;;;;;;;;;;4973975;28;20458;-86
2022/01/10 04:45:05;;;;;;;5.20;2.80;;;;;;;;;;4975075;28;20458;-89
2022/01/10 04:47:32;;;;;;;3.83;3.20;;;;;;;;;;4975167;28;20450;-88
2022/01/10 04:50:19;;;;;;;4.53;2.60;;;;;;;;;;4975141;28;20941;-87
2022/01/10 04:52:47;;;;;;;4.30;2.67;;;;;;;;;;4975109;28;20459;-86
2022/01/10 04:55:15;;;;;;;4.20;3.20;;;1.70;99.90;;;;;;4975001;28;20454;-85
2022/01/10 04:57:43;;;;;;;9.20;3.10;;;;;;;;;;4973950;28;20450;-85
2022/01/10 05:00:14;;;;;;;5.43;3.20;;;1.50;99.90;;;;;;4974911;28;20825;-86
2022/01/10 05:02:43;;;;;;;8.57;2.97;;;1.60;99.90;;;;;;4975492;28;20450;-86
2022/01/10 05:05:10;;;;;;;8.03;3.07;;;;;;;;;;4972187;28;20455;-86
2022/01/10 05:07:37;;;;;;;4.03;3.13;;;;;;;;;;4974707;28;20450;-87
2022/01/10 05:10:05;;;;;;;3.67;2.80;;;1.60;99.90;;;;;;4974297;28;20455;-87
2022/01/10 05:12:34;;;;;;;7.83;3.30;;;;;;;;;;4974084;28;20482;-86
2022/01/10 05:15:01;;;;;;;5.33;2.80;;;;;;;;;;4975716;28;20454;-85
2022/01/10 05:17:28;;;;;;;4.80;3.13;;;;;;;;;;4974603;28;20451;-87
2022/01/10 05:19:55;;;;;;;5.03;2.80;;;;;;;;;;4974754;28;20454;-86
2022/01/10 05:22:22;;;;;;;4.13;2.83;;;;;;;;;;4974175;28;20450;-88
2022/01/10 05:24:49;;;;;;;6.50;2.70;;;;;;;;;;4974689;28;20450;-87
2022/01/10 05:27:16;;;;;;;6.83;2.97;;;;;;;;;;4972611;28;20985;-87
2022/01/10 05:29:45;;;;;;;5.63;2.67;;;;;;;;;;4974559;28;20502;-86
2022/01/10 05:32:12;;;;;;;5.13;2.73;;;;;;;;;;4974478;28;20454;-86
2022/01/10 05:34:39;;;;;;;6.23;3.23;;;;;;;;;;4973205;28;20485;-86
2022/01/10 05:37:06;;;;;;;4.23;2.83;;;;;;;;;;4974351;28;20458;-86
2022/01/10 05:39:33;;;;;;;7.73;4.07;;;;;;;;;;4974068;28;20502;-86
2022/01/10 05:42:00;;;;;;;10.80;3.30;;;;;;;;;;4974598;28;20785;-87
2022/01/10 05:44:28;;;;;;;6.13;2.90;;;;;;;;;;4973603;28;20446;-87
2022/01/10 05:46:59;;;;;;;4.93;3.43;;;;;;;;;;4972530;28;20676;-87
2022/01/10 05:49:32;;;;;;;6.03;3.90;;;;;;;;;;4976187;28;20502;-87
2022/01/10 05:51:59;;;;;;;7.57;4.23;;;;;;;;;;4996029;28;20450;-88
2022/01/10 05:54:26;;;;;;;5.50;3.30;;;;;;;;;;4994989;28;20451;-87
2022/01/10 05:56:53;;;;;;;8.83;3.50;;;;;;;;;;4974852;28;20451;-86
2022/01/10 05:59:20;;;;;;;9.97;3.83;;;;;;;;;;4974086;28;20454;-88
2022/01/10 06:01:48;;;;;;;7.67;4.27;;;;;;;;;;4974426;28;20972;-86
2022/01/10 06:04:16;;;;;;;7.47;3.57;;;1.60;99.90;;;;;;4974300;28;20951;-86
2022/01/10 06:06:43;;;;;;;8.40;3.97;;;;;;;;;;4974277;28;20453;-88
2022/01/10 06:09:10;;;;;;;11.90;4.00;;;;;;;;;;4974359;28;20493;-89
2022/01/10 06:11:39;;;;;;;5.50;3.53;;;;;;;;;;4974275;28;20933;-87
2022/01/10 06:14:07;;;;;;;6.67;4.03;;;;;;;;;;4973174;28;20466;-86
2022/01/10 06:16:34;;;;;;;8.10;3.90;;;;;;;;;;4974372;28;20461;-86
2022/01/10 06:19:01;;;;;;;8.33;4.20;;;;;;;;;;4974824;28;20455;-86
2022/01/10 06:21:29;;;;;;;6.60;4.03;;;1.60;99.90;;;;;;4974621;28;20962;-86
2022/01/10 06:23:57;;;;;;;6.30;3.40;;;;;;;;;;4975095;28;20823;-86
2022/01/10 06:26:24;;;;;;;5.77;4.17;;;;;;;;;;4973966;28;20451;-88
2022/01/10 06:28:51;;;;;;;8.73;3.77;;;;;;;;;;4972830;28;21006;-87
2022/01/10 06:31:18;;;;;;;13.60;4.03;;;;;;;;;;4973945;28;20973;-87
2022/01/10 06:33:45;;;;;;;5.17;3.80;;;;;;;;;;4974010;28;20549;-87
2022/01/10 06:36:12;;;;;;;4.70;3.70;;;;;;;;;;4973650;28;20481;-87
2022/01/10 06:38:40;;;;;;;12.70;4.37;;;1.70;99.90;;;;;;4975479;28;20466;-87
2022/01/10 06:41:08;;;;;;;10.83;4.40;;;;;;;;;;4975109;28;20473;-87
2022/01/10 06:43:37;;;;;;;8.30;3.97;;;;;;;;;;4977240;28;20451;-87
2022/01/10 06:46:04;;;;;;;8.47;4.27;;;;;;;;;;4977373;28;20465;-88
2022/01/10 06:48:31;;;;;;;10.47;4.50;;;;;;;;;;4977356;28;20978;-87
2022/01/10 06:50:58;;;;;;;7.50;3.97;;;;;;;;;;4977555;28;20446;-88
2022/01/10 06:53:26;;;;;;;7.13;4.40;;;;;;;;;;4977521;28;20545;-87
2022/01/10 06:55:54;;;;;;;9.43;5.03;;;1.80;99.90;;;;;;4977565;28;20813;-87
2022/01/10 06:58:21;;;;;;;7.47;4.33;;;;;;;;;;4976632;28;20453;-88
2022/01/10 07:00:48;;;;;;;7.47;4.90;;;;;;;;;;4978220;28;20457;-88
2022/01/10 07:03:15;;;;;;;12.10;5.40;;;;;;;;;;4978029;28;20454;-87
2022/01/10 07:05:42;;;;;;;11.67;6.27;;;;;;;;;;4977301;28;20474;-87
2022/01/10 07:08:09;;;;;;;14.50;7.73;;;;;;;;;;4977329;28;20454;-89
2022/01/10 07:10:36;;;;;;;14.40;6.40;;;;;;;;;;4976880;28;20494;-87
2022/01/10 07:13:05;;;;;;;12.00;6.80;;;1.90;99.90;;;;;;4975876;28;20981;-87
2022/01/10 07:15:32;;;;;;;9.57;5.47;;;;;;;;;;4975617;28;20454;-86
2022/01/10 07:17:59;;;;;;;8.60;5.60;;;;;;;;;;4977738;28;20454;-88
2022/01/10 07:20:27;;;;;;;10.80;6.97;;;;;;;;;;4978239;28;20466;-88
2022/01/10 07:22:54;;;;;;;11.47;7.03;;;;;;;;;;4977084;28;20543;-88
2022/01/10 07:25:21;;;;;;;20.27;9.67;;;;;;;;;;4977024;28;20457;-90
2022/01/10 07:27:48;;;;;;;19.30;8.50;;;;;;;;;;4976245;28;20462;-87
2022/01/10 07:30:17;;;;;;;16.57;8.83;;;;;;;;;;4976728;28;21014;-87
2022/01/10 07:32:44;;;;;;;20.30;10.37;;;;;;;;;;4977061;28;20457;-89
2022/01/10 07:35:12;;;;;;;13.70;8.77;;;2.10;99.90;;;;;;4976913;28;20490;-87
2022/01/10 07:37:39;;;;;;;17.50;8.80;;;;;;;;;;4976984;28;20457;-87
2022/01/10 07:40:07;;;;;;;17.73;9.13;;;2.10;99.90;;;;;;4976699;28;20455;-88
2022/01/10 07:42:34;;;;;;;20.97;10.10;;;;;;;;;;4974380;28;20439;-89
2022/01/10 07:45:01;;;;;;;14.00;8.10;;;;;;;;;;4981631;28;20462;-94
2022/01/10 07:47:30;;;;;;;18.60;9.17;;;;;;;;;;4974319;28;20450;-89
2022/01/10 07:49:57;;;;;;;19.00;9.07;;;;;;;;;;4977529;28;21009;-91
2022/01/10 07:52:26;;;;;;;24.43;10.17;;;;;;;;;;4977661;28;20462;-88
2022/01/10 07:54:53;;;;;;;18.23;10.93;;;;;;;;;;4978230;28;20449;-89
2022/01/10 07:57:21;;;;;;;19.93;11.77;;;;;;;;;;4977210;28;20477;-88
2022/01/10 07:59:48;;;;;;;27.27;11.17;;;;;;;;;;4957057;28;20974;-86
2022/01/10 08:02:16;;;;;;;22.00;10.60;;;;;;;;;;4956323;28;20551;-86
2022/01/10 08:04:44;;;;;;;18.43;9.80;;;2.00;99.90;;;;;;4976761;28;20873;-92
2022/01/10 08:07:11;;;;;;;18.93;10.10;;;;;;;;;;4976892;28;20447;-91
2022/01/10 08:09:38;;;;;;;24.03;10.77;;;;;;;;;;4978706;28;20482;-91
2022/01/10 08:12:06;;;;;;;17.90;9.90;;;1.80;99.90;;;;;;4976888;28;20493;-92
2022/01/10 08:14:34;;;;;;;26.00;10.90;;;2.00;99.90;;;;;;4976971;28;20450;-92
2022/01/10 08:17:02;;;;;;;20.07;11.00;;;2.00;99.90;;;;;;4976558;28;20806;-87
2022/01/10 08:19:33;;;;;;;19.70;11.00;;;;;;;;;;4975633;28;20466;-88
2022/01/10 08:22:02;;;;;;;19.47;10.63;;;2.40;99.90;;;;;;4977368;28;20454;-92
2022/01/10 08:24:30;;;;;;;18.57;9.93;;;;;;;;;;4977516;28;20442;-90
2022/01/10 08:26:58;;;;;;;25.97;11.43;;;;;;;;;;4960131;28;20450;-92
2022/01/10 08:29:25;;;;;;;27.53;11.30;;;;;;;;;;4998876;28;20486;-90
2022/01/10 08:31:52;;;;;;;14.37;8.70;;;;;;;;;;4994139;28;20486;-93
2022/01/10 08:34:21;;;;;;;27.17;11.07;;;;;;;;;;4977730;28;20623;-92
2022/01/10 08:36:48;;;;;;;19.53;10.70;;;;;;;;;;4978769;28;20453;-91
2022/01/10 08:39:17;;;;;;;24.03;10.63;;;2.20;99.90;;;;;;4978258;28;20451;-93
2022/01/10 08:41:44;;;;;;;19.83;10.90;;;;;;;;;;4973827;28;20477;-91
2022/01/10 08:44:14;;;;;;;20.30;10.87;;;;;;;;;;4976296;28;20447;-93
2022/01/10 08:46:43;;;;;;;17.63;10.00;;;;;;;;;;4975025;28;20455;-91
2022/01/10 08:49:11;;;;;;;24.93;10.47;;;;;;;;;;4975883;28;20537;-91
2022/01/10 08:51:39;;;;;;;24.93;11.67;;;;;;;;;;4975741;28;20451;-91
2022/01/10 08:54:06;;;;;;;35.73;13.00;;;;;;;;;;4975779;28;20777;-86
2022/01/10 08:56:35;;;;;;;22.47;10.87;;;;;;;;;;4976283;28;20455;-92
2022/01/10 08:59:03;;;;;;;26.30;11.37;;;;;;;;;;4976171;28;20443;-90
2022/01/10 09:01:31;;;;;;;23.37;11.50;;;;;;;;;;4976051;28;20801;-92
2022/01/10 09:03:58;;;;;;;27.73;10.73;;;;;;;;;;4976821;28;20456;-94
2022/01/10 09:06:26;;;;;;;25.43;10.90;;;;;;;;;;4976511;28;20447;-91
2022/01/10 09:08:53;;;;;;;22.73;9.50;;;;;;;;;;4975890;28;20695;-91
2022/01/10 09:11:20;;;;;;;18.33;8.80;;;;;;;;;;4977929;28;20481;-91
2022/01/10 09:13:51;;;;;;;18.27;9.07;;;;;;;;;;4979251;28;20451;-94
2022/01/10 09:16:18;;;;;;;21.60;9.90;;;;;;;;;;4981780;28;20526;-92
2022/01/10 09:18:48;;;;;;;21.00;8.97;;;;;;;;;;4976792;28;20447;-92
2022/01/10 09:21:15;;;;;;;19.03;8.70;;;;;;;;;;4978140;28;20473;-93
2022/01/10 09:23:42;;;;;;;19.50;9.57;;;;;;;;;;4977800;28;20519;-91
2022/01/10 09:26:09;;;;;;;20.90;10.60;;;;;;;;;;4958378;29;20448;-92
2022/01/10 09:28:36;;;;;;;22.93;9.50;;;;;;;;;;4956004;28;20856;-88
2022/01/10 09:31:05;;;;;;;22.13;9.40;;;2.60;99.90;;;;;;4955567;29;20495;-91
2022/01/10 09:33:32;;;;;;;22.83;9.60;;;;;;;;;;4955420;28;20462;-88
2022/01/10 09:35:59;;;;;;;17.27;8.23;;;;;;;;;;4956153;29;20491;-89
2022/01/10 09:38:26;;;;;;;22.50;9.93;;;;;;;;;;4956045;29;20439;-90
2022/01/10 09:40:53;;;;;;;18.10;9.53;;;;;;;;;;4956624;28;20509;-92
2022/01/10 09:43:21;;;;;;;21.60;9.67;;;;;;;;;;4974123;28;20451;-87
2022/01/10 09:45:48;;;;;;;23.70;10.20;;;;;;;;;;4974357;28;21045;-87
2022/01/10 09:48:17;;;;;;;21.90;9.43;;;;;;;;;;4974953;28;20911;-86
2022/01/10 09:50:44;;;;;;;22.40;11.83;;;2.50;99.90;;;;;;4974730;28;20864;-85
2022/01/10 09:53:11;;;;;;;25.17;10.80;;;;;;;;;;4974944;28;20805;-86
2022/01/10 09:55:39;;;;;;;23.40;11.47;;;;;;;;;;4974126;28;20458;-86
2022/01/10 09:58:06;;;;;;;22.90;9.70;;;;;;;;;;4973143;28;20454;-86
2022/01/10 10:00:33;;;;;;;24.80;11.33;;;;;;;;;;4972206;28;20461;-86
2022/01/10 10:03:00;;;;;;;22.17;10.00;;;;;;;;;;4974357;28;20804;-86
2022/01/10 10:05:29;;;;;;;18.60;9.80;;;2.60;99.90;;;;;;4974464;28;20455;-86
2022/01/10 10:07:56;;;;;;;30.63;12.10;;;;;;;;;;4973266;28;20840;-87
2022/01/10 10:10:23;;;;;;;21.17;11.20;;;;;;;;;;4974069;28;20498;-86
2022/01/10 10:12:51;;;;;;;18.70;10.80;;;2.70;99.90;;;;;;4972348;28;20876;-87
2022/01/10 10:15:22;;;;;;;20.27;10.70;;;2.70;99.90;;;;;;4983572;28;20457;-86
2022/01/10 10:17:49;;;;;;;24.37;11.40;;;;;;;;;;4996926;28;20457;-87
2022/01/10 10:20:20;;;;;;;20.23;8.30;;;2.90;99.90;;;;;;4997197;28;20462;-87
2022/01/10 10:22:51;;;;;;;19.23;9.43;;;2.90;99.90;;;;;;4997101;28;20457;-87
2022/01/10 10:25:19;;;;;;;20.80;10.10;;;2.80;99.90;;;;;;4997799;28;20455;-93
2022/01/10 10:27:50;;;;;;;19.00;10.03;;;2.90;99.90;;;;;;4998240;28;20469;-94
2022/01/10 10:30:21;;;;;;;17.80;9.17;;;3.10;99.90;;;;;;4996756;28;20507;-89
2022/01/10 10:32:50;;;;;;;17.40;9.40;;;;;;;;;;4990221;28;20856;-88
2022/01/10 10:35:18;;;;;;;21.00;10.20;;;3.20;99.90;;;;;;4997385;28;20482;-90
2022/01/10 10:37:48;;;;;;;21.93;11.40;;;3.40;99.90;;;;;;4998585;28;20512;-92
2022/01/10 10:40:17;;;;;;;24.67;10.87;;;;;;;;;;4999083;28;21112;-93
2022/01/10 10:42:45;;;;;;;15.93;11.37;;;3.70;99.90;;;;;;4996551;28;20452;-92
2022/01/10 10:45:14;;;;;;;17.20;10.63;;;3.70;99.90;;;;;;4997653;28;20461;-91
2022/01/10 10:47:44;;;;;;;19.93;9.90;;;;;;;;;;4998346;28;20457;-93
2022/01/10 10:50:12;;;;;;;18.53;10.03;;;3.50;99.90;;;;;;4998872;28;20576;-94
2022/01/10 10:52:41;;;;;;;14.50;9.43;;;3.40;99.90;;;;;;4997650;28;20453;-93
2022/01/10 10:55:18;;;;;;;26.73;9.67;;;3.20;99.90;;;;;;4998519;28;20928;-92
2022/01/10 10:57:48;;;;;;;21.47;11.37;;;4.90;99.90;;;;;;4997641;28;20531;-91
2022/01/10 11:00:16;;;;;;;20.40;11.37;;;3.10;99.90;;;;;;4997706;28;20458;-91
2022/01/10 11:02:44;;;;;;;24.80;10.43;;;;;;;;;;4996842;28;20449;-88
2022/01/10 11:05:12;;;;;;;19.00;11.83;;;;;;;;;;4997163;28;20468;-93
2022/01/10 11:07:39;;;;;;;17.57;12.30;;;;;;;;;;4997683;28;20465;-92
2022/01/10 11:10:08;;;;;;;20.40;10.93;;;3.60;99.90;;;;;;4996277;28;20496;-90
2022/01/10 11:12:41;;;;;;;26.07;12.33;;;3.50;99.90;;;;;;4993884;28;20457;-91
2022/01/10 11:15:10;;;;;;;17.77;10.50;;;3.50;99.90;;;;;;4997841;28;20805;-90
2022/01/10 11:17:41;;;;;;;19.13;10.83;;;3.50;99.90;;;;;;4995476;28;20820;-90
2022/01/10 11:20:12;;;;;;;22.70;11.97;;;3.60;99.90;;;;;;4978794;28;20832;-89
2022/01/10 11:22:41;;;;;;;18.17;10.60;;;3.50;99.90;;;;;;4975683;28;21042;-89
2022/01/10 11:25:19;;;;;;;17.70;9.70;;;;;;;;;;4975215;28;20451;-90
2022/01/10 11:27:47;;;;;;;24.10;11.60;;;;;;;;;;4984848;28;20457;-92
2022/01/10 11:30:28;;;;;;;22.30;14.43;;;;;;;;;;4966425;28;20479;-92
2022/01/10 11:33:00;;;;;;;22.23;11.93;;;;;;;;;;4981852;28;20513;-92
2022/01/10 11:35:28;;;;;;;16.60;10.70;;;;;;;;;;4981926;28;20498;-93
2022/01/10 11:37:55;;;;;;;21.10;11.70;;;;;;;;;;4981134;28;20819;-93
2022/01/10 11:42:53;;;;;;;22.77;11.10;;;;;;;;;;5026176;23;20495;-93
2022/01/10 11:45:23;;;;;;;18.20;9.30;;;;;;;;;;5017697;28;20260;-93
2022/01/10 11:48:16;;;;;;;20.80;10.73;;;3.90;99.90;;;;;;5018521;28;20933;-90
2022/01/10 11:50:45;;;;;;;14.80;8.57;;;3.90;99.90;;;;;;5009988;28;20563;-91
2022/01/10 11:53:13;;;;;;;18.17;7.87;;;;;;;;;;5009299;28;20488;-93
2022/01/10 11:55:52;;;;;;;11.63;7.20;;;4.30;99.90;;;;;;5010031;28;20453;-91
2022/01/10 11:58:21;;;;;;;14.90;8.47;;;4.50;99.90;;;;;;5015694;28;20479;-91
2022/01/10 12:00:50;;;;;;;20.60;10.63;;;;;;;;;;5016422;28;20437;-90
2022/01/10 12:03:20;;;;;;;18.40;10.20;;;4.40;99.90;;;;;;5013252;28;20453;-91
2022/01/10 12:05:49;;;;;;;16.30;10.00;;;;;;;;;;5016096;28;20503;-93
2022/01/10 12:08:16;;;;;;;12.50;6.97;;;;;;;;;;5016566;28;20449;-92
2022/01/10 12:10:44;;;;;;;13.60;8.30;;;4.60;99.90;;;;;;5019789;28;20481;-92
2022/01/10 12:13:13;;;;;;;11.37;7.43;;;;;;;;;;5017706;28;20468;-88
2022/01/10 12:15:40;;;;;;;12.07;6.87;;;;;;;;;;5021601;28;20875;-88
2022/01/10 12:18:08;;;;;;;14.83;7.70;;;4.90;99.90;;;;;;5016083;28;20448;-92
2022/01/10 12:20:37;;;;;;;10.97;8.50;;;4.80;99.90;;;;;;5013318;28;20441;-91
2022/01/10 12:23:04;;;;;;;14.40;8.53;;;;;;;;;;5014041;28;20476;-89
2022/01/10 12:25:31;;;;;;;10.50;8.10;;;;;;;;;;5017176;28;20445;-89
2022/01/10 12:28:01;;;;;;;12.20;8.80;;;4.50;99.90;;;;;;5019280;28;20449;-89
2022/01/10 12:30:29;;;;;;;12.17;8.27;;;;;;;;;;5024662;28;20481;-89
2022/01/10 12:32:57;;;;;;;14.63;8.10;;;;;;;;;;5021371;28;20528;-88
2022/01/10 12:35:24;;;;;;;12.10;7.77;;;;;;;;;;5028740;23;20484;-90
2022/01/10 12:37:57;;;;;;;15.23;8.43;;;4.10;99.90;;;;;;5021724;28;20460;-88
2022/01/10 12:40:31;;;;;;;16.53;7.80;;;;;;;;;;5016680;28;20485;-90
2022/01/10 12:42:59;;;;;;;16.27;7.73;;;;;;;;;;5019118;28;21002;-91
2022/01/10 12:45:36;;;;;;;11.77;7.30;;;4.20;99.90;;;;;;5015903;28;20515;-89
2022/01/10 12:48:04;;;;;;;12.83;7.20;;;;;;;;;;5018439;28;20936;-92
2022/01/10 12:50:32;;;;;;;11.90;6.93;;;4.20;99.90;;;;;;5016563;28;20488;-90
2022/01/10 12:53:01;;;;;;;14.53;6.43;;;4.30;99.90;;;;;;5017325;28;20437;-88
2022/01/10 12:55:28;;;;;;;8.67;7.03;;;;;;;;;;5013365;28;20479;-88
2022/01/10 12:57:57;;;;;;;19.60;7.30;;;;;;;;;;5015217;28;20518;-88
2022/01/10 13:00:24;;;;;;;13.70;8.17;;;;;;;;;;5021034;28;20449;-90
2022/01/10 13:02:51;;;;;;;15.07;7.97;;;;;;;;;;5023768;28;20437;-90
2022/01/10 13:05:18;;;;;;;14.90;7.80;;;4.10;99.90;;;;;;5021833;28;20827;-93
2022/01/10 13:07:47;;;;;;;13.27;7.90;;;4.10;99.90;;;;;;5020205;28;20938;-90
2022/01/10 13:10:32;;;;;;;13.57;8.93;;;4.20;99.90;;;;;;5023316;28;20456;-89
2022/01/10 13:13:01;;;;;;;20.77;9.70;;;;;;;;;;5026256;28;20473;-91
2022/01/10 13:15:33;;;;;;;19.30;8.33;;;4.30;99.90;;;;;;5018720;28;20834;-92
2022/01/10 13:18:02;;;;;;;14.13;8.40;;;4.40;99.90;;;;;;5015180;28;20453;-89
2022/01/10 13:20:32;;;;;;;13.30;8.00;;;4.30;99.90;;;;;;5014590;28;20476;-92
2022/01/10 13:23:02;;;;;;;14.30;8.20;;;4.40;99.90;;;;;;5017008;28;21008;-90
2022/01/10 13:25:35;;;;;;;14.03;8.50;;;4.20;99.90;;;;;;5015819;28;20952;-91
2022/01/10 13:28:05;;;;;;;12.20;8.00;;;4.30;99.90;;;;;;5016532;28;20913;-90
2022/01/10 13:30:32;;;;;;;15.33;9.00;;;;;;;;;;5017651;28;20437;-91
2022/01/10 13:33:01;;;;;;;12.67;8.70;;;4.40;99.90;;;;;;5016495;28;20460;-92
2022/01/10 13:35:31;;;;;;;13.17;9.10;;;4.40;99.90;;;;;;5017543;28;20473;-91
2022/01/10 13:38:01;;;;;;;16.83;9.07;;;4.30;99.90;;;;;;5016387;28;20453;-90
2022/01/10 13:40:30;;;;;;;21.97;10.73;;;4.30;99.90;;;;;;5016469;28;20456;-88
2022/01/10 13:43:03;;;;;;;16.83;10.00;;;4.30;99.90;;;;;;5013233;28;20453;-88
2022/01/10 13:45:43;;;;;;;21.47;9.93;;;4.40;99.90;;;;;;5016406;28;20467;-92
2022/01/10 13:48:13;;;;;;;20.00;11.40;;;4.40;99.90;;;;;;5027898;28;20475;-93
2022/01/10 13:50:45;;;;;;;21.33;11.60;;;4.40;99.90;;;;;;5040788;28;20476;-88
2022/01/10 13:53:27;;;;;;;17.30;10.40;;;4.40;99.90;;;;;;5021405;28;20447;-90
2022/01/10 13:56:10;;;;;;;15.87;9.90;;;4.40;99.90;;;;;;5018060;28;20527;-87
2022/01/10 13:58:43;;;;;;;15.50;10.10;;;4.30;99.90;;;;;;5018221;28;20445;-88
2022/01/10 14:01:13;;;;;;;17.07;11.73;;;4.30;99.90;;;;;;5015457;28;20460;-89
2022/01/10 14:03:41;;;;;;;19.73;10.63;;;4.40;99.90;;;;;;5019975;28;20450;-91
2022/01/10 14:06:12;;;;;;;22.70;11.00;;;4.40;99.90;;;;;;5020677;28;20456;-91
2022/01/10 14:08:41;;;;;;;17.20;10.80;;;4.40;99.90;;;;;;5019778;28;20453;-89
2022/01/10 14:11:11;;;;;;;21.43;12.63;;;4.40;99.90;;;;;;5020219;28;20496;-94
2022/01/10 14:13:39;;;;;;;16.30;11.30;;;4.40;99.90;;;;;;5014634;28;20471;-91
2022/01/10 14:16:06;;;;;;;20.03;11.30;;;;;;;;;;5009128;28;20441;-89